West Palm Beach, FL (33406)

7:34 AM EDT on April 27, 2015 (GMT -0400)
LCS Police HQ / EOC | | Change Station
CLOSE
Current Station
Personal Weather Station
Location: Lake Clarke Shores, FL
Elevation: 30 ft
Nearby Weather Stations

Elev 30 ft 26.65 °N, 80.08 °W | Updated 19 seconds ago

Scattered Clouds
Scattered Clouds
77.1 °F
Feels Like 78 °F
N
6.7
Wind Variable Wind from NW
Gusts 12.2 mph

Today
High -- | Low -- °F
--% Chance of Precip.
Yesterday
High -- | Low -- °F
Precip. -- in
6:45 AM 7:50 PM
Waxing Gibbous, 64% visible
Pressure 29.79 in
Visibility 6.0 miles
Clouds Few 700 ft
Scattered Clouds 10000 ft
Scattered Clouds 25000 ft
Heat Index 78 °F
Dew Point 75 °F
Humidity 94%
Rainfall 0.00 in
Snow Depth Not available.
UV 0 out of 12
Pollen 7.30 out of 12
Air Quality Not available.
Flu Activity Local Activity
METAR KPBI 271053Z 24008G16KT 6SM BR FEW007 SCT100 SCT250 25/24 A2979 RMK AO2 SLP088 T02500239

More Conditions Fewer Conditions

Pressure 29.79 in
Visibility 6.0 miles
Clouds Few 700 ft
Scattered Clouds 10000 ft
Scattered Clouds 25000 ft
Heat Index 78 °F
Dew Point 75 °F
Humidity 94%
Rainfall 0.00 in
Snow Depth Not available.
UV 0 out of 12
Pollen 7.30 out of 12
Air Quality Not available.
Flu Activity Local Activity
METAR KPBI 271053Z 24008G16KT 6SM BR FEW007 SCT100 SCT250 25/24 A2979 RMK AO2 SLP088 T02500239

More Conditions Fewer Conditions

10-Day Weather Forecast

Almanac

Astronomy

Apr. 27, 2015 Rise Set
Actual Time
Civil Twilight
Nautical Twilight
Astronomical Twilight
Moon
Length of Visible Light
Length of Day
Tomorrow will be .
, % of the Moon is Illuminated

Today's Extremes

State Highs State Lows

Community

WunderPhotos

Upload Photos

1,817,283 photos uploaded!

WunderBlogs® & News

Nearby

Air Quality

  Air Quality AQ Index Pollutant
Not available.

Snow Depth

Station Depth Elevation

Earthquake Activity

City Distance Mag. Time & Date
Minimum magnitude displayed is 2.5.

Coastal Water Temperatures

Place Temperature

Stations

Nearby Weather Stations

Station Location Temp. Windchill Dew Point Humidity Wind Precip. Elev Updated Type